sensor_id;sensor_type;location;lat;lon;timestamp;pressure;altitude;pressure_sealevel;temperature;humidity
7930;BME280;4010;42.698;23.124;2023-04-01T00:00:08;118349.16;;;-140.64;48.72
7930;BME280;4010;42.698;23.124;2023-04-01T00:02:35;118349.16;;;-140.64;48.76
7930;BME280;4010;42.698;23.124;2023-04-01T00:05:18;118349.16;;;-140.64;48.73
7930;BME280;4010;42.698;23.124;2023-04-01T00:07:52;118349.16;;;-140.64;49.03
7930;BME280;4010;42.698;23.124;2023-04-01T00:10:20;118349.16;;;-140.64;48.94
7930;BME280;4010;42.698;23.124;2023-04-01T00:12:47;118349.16;;;-140.64;48.83
7930;BME280;4010;42.698;23.124;2023-04-01T00:15:14;118349.16;;;-140.64;48.58
7930;BME280;4010;42.698;23.124;2023-04-01T00:17:41;118349.16;;;-140.64;48.76
7930;BME280;4010;42.698;23.124;2023-04-01T00:20:08;118349.16;;;-140.64;49.12
7930;BME280;4010;42.698;23.124;2023-04-01T00:22:35;118349.16;;;-140.64;49.84
7930;BME280;4010;42.698;23.124;2023-04-01T00:25:02;118349.16;;;-140.64;50.46
7930;BME280;4010;42.698;23.124;2023-04-01T00:27:31;118349.16;;;-140.64;50.97
7930;BME280;4010;42.698;23.124;2023-04-01T00:29:57;118349.16;;;-140.64;50.86
7930;BME280;4010;42.698;23.124;2023-04-01T00:32:24;118349.16;;;-140.64;50.65
7930;BME280;4010;42.698;23.124;2023-04-01T00:34:51;118349.16;;;-140.64;50.25
7930;BME280;4010;42.698;23.124;2023-04-01T00:37:19;118349.16;;;-140.64;49.94
7930;BME280;4010;42.698;23.124;2023-04-01T00:39:46;118349.16;;;-140.64;50.00
7930;BME280;4010;42.698;23.124;2023-04-01T00:42:13;118349.16;;;-140.64;49.91
7930;BME280;4010;42.698;23.124;2023-04-01T00:44:42;118349.16;;;-140.64;49.62
7930;BME280;4010;42.698;23.124;2023-04-01T00:47:08;118349.16;;;-140.64;49.79
7930;BME280;4010;42.698;23.124;2023-04-01T00:49:37;118349.16;;;-140.64;49.95
7930;BME280;4010;42.698;23.124;2023-04-01T00:52:07;118349.16;;;-140.64;50.40
7930;BME280;4010;42.698;23.124;2023-04-01T00:54:35;118349.16;;;-140.64;50.08
7930;BME280;4010;42.698;23.124;2023-04-01T00:57:06;118349.16;;;-140.64;50.43
7930;BME280;4010;42.698;23.124;2023-04-01T00:59:38;118349.16;;;-140.64;50.16
7930;BME280;4010;42.698;23.124;2023-04-01T01:02:08;118349.16;;;-140.64;49.89
7930;BME280;4010;42.698;23.124;2023-04-01T01:04:37;118349.16;;;-140.64;49.95
7930;BME280;4010;42.698;23.124;2023-04-01T01:07:12;118349.16;;;-140.64;49.98
7930;BME280;4010;42.698;23.124;2023-04-01T01:09:48;118349.16;;;-140.64;49.77
7930;BME280;4010;42.698;23.124;2023-04-01T01:12:20;118349.16;;;-140.64;49.52
7930;BME280;4010;42.698;23.124;2023-04-01T01:14:54;118349.16;;;-140.64;49.38
7930;BME280;4010;42.698;23.124;2023-04-01T01:17:33;118349.16;;;-140.64;49.57
7930;BME280;4010;42.698;23.124;2023-04-01T01:20:32;118349.16;;;-140.64;49.67
7930;BME280;4010;42.698;23.124;2023-04-01T01:23:18;118349.16;;;-140.64;49.70
7930;BME280;4010;42.698;23.124;2023-04-01T01:25:59;118349.16;;;-140.64;49.88
7930;BME280;4010;42.698;23.124;2023-04-01T01:28:44;118349.16;;;-140.64;49.14
7930;BME280;4010;42.698;23.124;2023-04-01T01:31:20;118349.16;;;-140.64;49.46
7930;BME280;4010;42.698;23.124;2023-04-01T01:34:06;118349.16;;;-140.64;49.19
7930;BME280;4010;42.698;23.124;2023-04-01T01:36:38;118349.16;;;-140.64;49.33
7930;BME280;4010;42.698;23.124;2023-04-01T01:39:08;118349.16;;;-140.64;49.01
7930;BME280;4010;42.698;23.124;2023-04-01T01:41:37;118349.16;;;-140.64;48.43
7930;BME280;4010;42.698;23.124;2023-04-01T01:44:08;118349.16;;;-140.64;48.86
7930;BME280;4010;42.698;23.124;2023-04-01T01:46:36;118349.16;;;-140.64;48.45
7930;BME280;4010;42.698;23.124;2023-04-01T01:49:05;118349.16;;;-140.64;48.31
7930;BME280;4010;42.698;23.124;2023-04-01T01:51:33;118349.16;;;-140.64;48.50
7930;BME280;4010;42.698;23.124;2023-04-01T01:54:02;118349.16;;;-140.64;48.07
7930;BME280;4010;42.698;23.124;2023-04-01T01:56:29;118349.16;;;-140.64;48.22
7930;BME280;4010;42.698;23.124;2023-04-01T01:59:01;118349.16;;;-140.64;47.95
7930;BME280;4010;42.698;23.124;2023-04-01T02:01:32;118349.16;;;-140.64;47.71
7930;BME280;4010;42.698;23.124;2023-04-01T02:04:02;118349.16;;;-140.64;47.68
7930;BME280;4010;42.698;23.124;2023-04-01T02:06:32;118349.16;;;-140.64;47.31
7930;BME280;4010;42.698;23.124;2023-04-01T02:09:04;118349.16;;;-140.64;47.46
7930;BME280;4010;42.698;23.124;2023-04-01T02:11:34;118349.16;;;-140.64;47.38
7930;BME280;4010;42.698;23.124;2023-04-01T02:14:05;118349.16;;;-140.64;47.30
7930;BME280;4010;42.698;23.124;2023-04-01T02:16:36;118349.16;;;-140.64;47.05
7930;BME280;4010;42.698;23.124;2023-04-01T02:19:07;118349.16;;;-140.64;47.01
7930;BME280;4010;42.698;23.124;2023-04-01T02:21:35;118349.16;;;-140.64;46.93
7930;BME280;4010;42.698;23.124;2023-04-01T02:24:08;118349.16;;;-140.64;47.02
7930;BME280;4010;42.698;23.124;2023-04-01T02:26:36;118349.16;;;-140.64;47.03
7930;BME280;4010;42.698;23.124;2023-04-01T02:29:05;118349.16;;;-140.64;47.00
7930;BME280;4010;42.698;23.124;2023-04-01T02:31:33;118349.16;;;-140.64;47.19
7930;BME280;4010;42.698;23.124;2023-04-01T02:34:01;118349.16;;;-140.64;47.31
7930;BME280;4010;42.698;23.124;2023-04-01T02:36:28;118349.16;;;-140.64;47.51
7930;BME280;4010;42.698;23.124;2023-04-01T02:38:55;118349.16;;;-140.64;47.29
7930;BME280;4010;42.698;23.124;2023-04-01T02:41:27;118349.16;;;-140.64;47.57
7930;BME280;4010;42.698;23.124;2023-04-01T02:43:54;118349.16;;;-140.64;47.48
7930;BME280;4010;42.698;23.124;2023-04-01T02:46:22;118349.16;;;-140.64;47.62
7930;BME280;4010;42.698;23.124;2023-04-01T02:48:49;118349.16;;;-140.64;47.55
7930;BME280;4010;42.698;23.124;2023-04-01T02:51:15;118349.16;;;-140.64;47.87
7930;BME280;4010;42.698;23.124;2023-04-01T02:53:42;118349.16;;;-140.64;49.11
7930;BME280;4010;42.698;23.124;2023-04-01T02:56:09;118349.16;;;-140.64;49.92
7930;BME280;4010;42.698;23.124;2023-04-01T02:58:37;118349.16;;;-140.64;50.60
7930;BME280;4010;42.698;23.124;2023-04-01T03:01:04;118349.16;;;-140.64;51.51
7930;BME280;4010;42.698;23.124;2023-04-01T03:03:31;118349.16;;;-140.64;51.64
7930;BME280;4010;42.698;23.124;2023-04-01T03:05:57;118349.16;;;-140.64;52.07
7930;BME280;4010;42.698;23.124;2023-04-01T03:08:25;118349.16;;;-140.64;53.23
7930;BME280;4010;42.698;23.124;2023-04-01T03:10:52;118349.16;;;-140.64;55.38
7930;BME280;4010;42.698;23.124;2023-04-01T03:13:18;118349.16;;;-140.64;56.75
7930;BME280;4010;42.698;23.124;2023-04-01T03:15:46;118349.16;;;-140.64;59.88
7930;BME280;4010;42.698;23.124;2023-04-01T03:18:13;118349.16;;;-140.64;62.60
7930;BME280;4010;42.698;23.124;2023-04-01T03:20:40;118349.16;;;-140.64;64.10
7930;BME280;4010;42.698;23.124;2023-04-01T03:23:07;118349.16;;;-140.64;64.85
7930;BME280;4010;42.698;23.124;2023-04-01T03:25:33;118349.16;;;-140.64;67.03
7930;BME280;4010;42.698;23.124;2023-04-01T03:28:00;118349.16;;;-140.64;70.35
7930;BME280;4010;42.698;23.124;2023-04-01T03:30:27;118349.16;;;-140.64;72.20
7930;BME280;4010;42.698;23.124;2023-04-01T03:32:57;118349.16;;;-140.64;73.28
7930;BME280;4010;42.698;23.124;2023-04-01T03:35:24;118349.16;;;-140.64;74.58
7930;BME280;4010;42.698;23.124;2023-04-01T03:37:53;118349.16;;;-140.64;75.24
7930;BME280;4010;42.698;23.124;2023-04-01T03:40:20;118349.16;;;-140.64;75.94
7930;BME280;4010;42.698;23.124;2023-04-01T03:42:47;118349.16;;;-140.64;77.96
7930;BME280;4010;42.698;23.124;2023-04-01T03:45:14;118349.16;;;-140.64;80.09
7930;BME280;4010;42.698;23.124;2023-04-01T03:47:41;118349.16;;;-140.64;80.71
7930;BME280;4010;42.698;23.124;2023-04-01T03:50:09;118349.16;;;-140.64;80.95
7930;BME280;4010;42.698;23.124;2023-04-01T03:52:36;118349.16;;;-140.64;81.45
7930;BME280;4010;42.698;23.124;2023-04-01T03:55:04;118349.16;;;-140.64;82.15
7930;BME280;4010;42.698;23.124;2023-04-01T03:57:31;118349.16;;;-140.64;82.23
7930;BME280;4010;42.698;23.124;2023-04-01T03:59:58;118349.16;;;-140.64;84.02
7930;BME280;4010;42.698;23.124;2023-04-01T04:02:25;118349.16;;;-140.64;84.15
7930;BME280;4010;42.698;23.124;2023-04-01T04:04:51;118349.16;;;-140.64;85.18
7930;BME280;4010;42.698;23.124;2023-04-01T04:07:19;118349.16;;;-140.64;85.74
7930;BME280;4010;42.698;23.124;2023-04-01T04:09:46;118349.16;;;-140.64;85.88
7930;BME280;4010;42.698;23.124;2023-04-01T04:12:13;118349.16;;;-140.64;86.01
7930;BME280;4010;42.698;23.124;2023-04-01T04:14:39;118349.16;;;-140.64;82.15
7930;BME280;4010;42.698;23.124;2023-04-01T04:17:06;118349.16;;;-140.64;78.29
7930;BME280;4010;42.698;23.124;2023-04-01T04:19:33;118349.16;;;-140.64;77.58
7930;BME280;4010;42.698;23.124;2023-04-01T04:22:00;118349.16;;;-140.64;76.23
7930;BME280;4010;42.698;23.124;2023-04-01T04:24:28;118349.16;;;-140.64;73.46
7930;BME280;4010;42.698;23.124;2023-04-01T04:26:55;118349.16;;;-140.64;73.04
7930;BME280;4010;42.698;23.124;2023-04-01T04:29:21;118349.16;;;-140.64;69.57
7930;BME280;4010;42.698;23.124;2023-04-01T04:31:48;118349.16;;;-140.64;66.82
7930;BME280;4010;42.698;23.124;2023-04-01T04:34:15;118349.16;;;-140.64;65.04
7930;BME280;4010;42.698;23.124;2023-04-01T04:36:43;118349.16;;;-140.64;63.82
7930;BME280;4010;42.698;23.124;2023-04-01T04:39:10;118349.16;;;-140.64;63.35
7930;BME280;4010;42.698;23.124;2023-04-01T04:41:38;118349.16;;;-140.64;61.32
7930;BME280;4010;42.698;23.124;2023-04-01T04:44:05;118349.16;;;-140.64;60.23
7930;BME280;4010;42.698;23.124;2023-04-01T04:46:31;118349.16;;;-140.64;60.19
7930;BME280;4010;42.698;23.124;2023-04-01T04:48:58;118349.16;;;-140.64;59.95
7930;BME280;4010;42.698;23.124;2023-04-01T04:51:25;118349.16;;;-140.64;59.20
7930;BME280;4010;42.698;23.124;2023-04-01T04:53:52;118349.16;;;-140.64;58.03
7930;BME280;4010;42.698;23.124;2023-04-01T04:56:20;118349.16;;;-140.64;57.79
7930;BME280;4010;42.698;23.124;2023-04-01T04:58:49;118349.16;;;-140.64;57.39
7930;BME280;4010;42.698;23.124;2023-04-01T05:01:16;118349.16;;;-140.64;57.06
7930;BME280;4010;42.698;23.124;2023-04-01T05:03:43;118349.16;;;-140.64;56.94
7930;BME280;4010;42.698;23.124;2023-04-01T05:06:12;118349.16;;;-140.64;56.67
7930;BME280;4010;42.698;23.124;2023-04-01T05:08:40;118349.16;;;-140.64;57.13
7930;BME280;4010;42.698;23.124;2023-04-01T05:11:10;118349.16;;;-140.64;57.89
7930;BME280;4010;42.698;23.124;2023-04-01T05:13:38;118349.16;;;-140.64;57.84
7930;BME280;4010;42.698;23.124;2023-04-01T05:16:09;118349.16;;;-140.64;56.59
7930;BME280;4010;42.698;23.124;2023-04-01T05:18:36;118349.16;;;-140.64;56.33
7930;BME280;4010;42.698;23.124;2023-04-01T05:21:03;118349.16;;;-140.64;54.35
7930;BME280;4010;42.698;23.124;2023-04-01T05:23:31;118349.16;;;-140.64;53.84
7930;BME280;4010;42.698;23.124;2023-04-01T05:25:58;118349.16;;;-140.64;52.35
7930;BME280;4010;42.698;23.124;2023-04-01T05:28:24;118349.16;;;-140.64;47.60
7930;BME280;4010;42.698;23.124;2023-04-01T05:30:51;118349.16;;;-140.64;45.05
7930;BME280;4010;42.698;23.124;2023-04-01T05:33:19;118349.16;;;-140.64;45.18
7930;BME280;4010;42.698;23.124;2023-04-01T05:35:46;118349.16;;;-140.64;43.77
7930;BME280;4010;42.698;23.124;2023-04-01T05:38:12;118349.16;;;-140.64;42.51
7930;BME280;4010;42.698;23.124;2023-04-01T05:40:40;118349.16;;;-140.64;42.78
7930;BME280;4010;42.698;23.124;2023-04-01T05:43:06;118349.16;;;-140.64;44.01
7930;BME280;4010;42.698;23.124;2023-04-01T05:45:33;118349.16;;;-140.64;43.05
7930;BME280;4010;42.698;23.124;2023-04-01T05:48:00;118349.16;;;-140.64;42.02
7930;BME280;4010;42.698;23.124;2023-04-01T05:50:28;118349.16;;;-140.64;41.26
7930;BME280;4010;42.698;23.124;2023-04-01T05:52:55;118349.16;;;-140.64;40.55
7930;BME280;4010;42.698;23.124;2023-04-01T05:55:23;118349.16;;;-140.64;41.37
7930;BME280;4010;42.698;23.124;2023-04-01T05:57:50;118349.16;;;-140.64;41.98
7930;BME280;4010;42.698;23.124;2023-04-01T06:00:17;118349.16;;;-140.64;43.86
7930;BME280;4010;42.698;23.124;2023-04-01T06:02:45;118349.16;;;-140.64;44.77
7930;BME280;4010;42.698;23.124;2023-04-01T06:05:15;118349.16;;;-140.64;44.51
7930;BME280;4010;42.698;23.124;2023-04-01T06:07:45;118349.16;;;-140.64;44.85
7930;BME280;4010;42.698;23.124;2023-04-01T06:10:13;118349.16;;;-140.64;45.48
7930;BME280;4010;42.698;23.124;2023-04-01T06:12:57;118349.16;;;-140.64;45.27
7930;BME280;4010;42.698;23.124;2023-04-01T06:15:35;118349.16;;;-140.64;45.69
7930;BME280;4010;42.698;23.124;2023-04-01T06:18:39;118349.16;;;-140.64;45.47
7930;BME280;4010;42.698;23.124;2023-04-01T06:21:23;118349.16;;;-140.64;45.67
7930;BME280;4010;42.698;23.124;2023-04-01T06:24:00;118349.16;;;-140.64;45.00
7930;BME280;4010;42.698;23.124;2023-04-01T06:26:34;118349.16;;;-140.64;45.34
7930;BME280;4010;42.698;23.124;2023-04-01T06:29:25;118349.16;;;-140.64;46.74
7930;BME280;4010;42.698;23.124;2023-04-01T06:32:06;118349.16;;;-140.64;45.91
7930;BME280;4010;42.698;23.124;2023-04-01T06:35:02;118349.16;;;-140.64;45.20
7930;BME280;4010;42.698;23.124;2023-04-01T06:43:28;118349.16;;;-140.64;45.58
7930;BME280;4010;42.698;23.124;2023-04-01T06:46:09;118349.16;;;-140.64;46.75
7930;BME280;4010;42.698;23.124;2023-04-01T06:48:55;118349.16;;;-140.64;45.87
7930;BME280;4010;42.698;23.124;2023-04-01T06:51:27;118349.16;;;-140.64;46.02
7930;BME280;4010;42.698;23.124;2023-04-01T06:54:03;118349.16;;;-140.64;46.21
7930;BME280;4010;42.698;23.124;2023-04-01T06:56:32;118349.16;;;-140.64;45.97
7930;BME280;4010;42.698;23.124;2023-04-01T06:59:05;118349.16;;;-140.64;45.91
7930;BME280;4010;42.698;23.124;2023-04-01T07:01:39;118349.16;;;-140.64;45.20
7930;BME280;4010;42.698;23.124;2023-04-01T07:04:11;118349.16;;;-140.64;46.03
7930;BME280;4010;42.698;23.124;2023-04-01T07:06:44;118349.16;;;-140.64;45.22
7930;BME280;4010;42.698;23.124;2023-04-01T07:09:16;118349.16;;;-140.64;44.57
7930;BME280;4010;42.698;23.124;2023-04-01T07:11:46;118349.16;;;-140.64;44.02
7930;BME280;4010;42.698;23.124;2023-04-01T07:14:17;118349.16;;;-140.64;44.71
7930;BME280;4010;42.698;23.124;2023-04-01T07:16:48;118349.16;;;-140.64;45.44
7930;BME280;4010;42.698;23.124;2023-04-01T07:19:20;118349.16;;;-140.64;45.06
7930;BME280;4010;42.698;23.124;2023-04-01T07:21:54;118349.16;;;-140.64;44.86
7930;BME280;4010;42.698;23.124;2023-04-01T07:24:26;118349.16;;;-140.64;44.55
7930;BME280;4010;42.698;23.124;2023-04-01T07:26:56;118349.16;;;-140.64;45.23
7930;BME280;4010;42.698;23.124;2023-04-01T07:29:23;118349.16;;;-140.64;44.97
7930;BME280;4010;42.698;23.124;2023-04-01T07:34:50;118349.16;;;-140.64;44.26
7930;BME280;4010;42.698;23.124;2023-04-01T07:37:23;118349.16;;;-140.64;44.73
7930;BME280;4010;42.698;23.124;2023-04-01T07:40:02;118349.16;;;-140.64;43.50
7930;BME280;4010;42.698;23.124;2023-04-01T07:42:40;118349.16;;;-140.64;44.89
7930;BME280;4010;42.698;23.124;2023-04-01T07:45:18;118349.16;;;-140.64;44.11
7930;BME280;4010;42.698;23.124;2023-04-01T07:48:14;118349.16;;;-140.64;44.48
7930;BME280;4010;42.698;23.124;2023-04-01T07:50:50;118349.16;;;-140.64;43.85
7930;BME280;4010;42.698;23.124;2023-04-01T07:53:25;118349.16;;;-140.64;44.28
7930;BME280;4010;42.698;23.124;2023-04-01T07:56:05;118349.16;;;-140.64;44.18
7930;BME280;4010;42.698;23.124;2023-04-01T07:58:42;118349.16;;;-140.64;43.97
7930;BME280;4010;42.698;23.124;2023-04-01T08:01:14;118349.16;;;-140.64;43.08
7930;BME280;4010;42.698;23.124;2023-04-01T08:03:55;118349.16;;;-140.64;43.52
7930;BME280;4010;42.698;23.124;2023-04-01T08:06:31;118349.16;;;-140.64;43.40
7930;BME280;4010;42.698;23.124;2023-04-01T08:09:04;118349.16;;;-140.64;44.10
7930;BME280;4010;42.698;23.124;2023-04-01T08:11:47;118349.16;;;-140.64;43.44
7930;BME280;4010;42.698;23.124;2023-04-01T08:14:29;118349.16;;;-140.64;43.25
7930;BME280;4010;42.698;23.124;2023-04-01T08:17:02;118349.16;;;-140.64;43.32
7930;BME280;4010;42.698;23.124;2023-04-01T08:19:43;118349.16;;;-140.64;42.23
7930;BME280;4010;42.698;23.124;2023-04-01T08:22:18;118349.16;;;-140.64;42.07
7930;BME280;4010;42.698;23.124;2023-04-01T08:24:48;118349.16;;;-140.64;42.30
7930;BME280;4010;42.698;23.124;2023-04-01T08:27:20;118349.16;;;-140.64;41.93
7930;BME280;4010;42.698;23.124;2023-04-01T08:29:53;118349.16;;;-140.64;41.12
7930;BME280;4010;42.698;23.124;2023-04-01T08:32:26;118349.16;;;-140.64;40.38
7930;BME280;4010;42.698;23.124;2023-04-01T08:35:06;118349.16;;;-140.64;40.38
7930;BME280;4010;42.698;23.124;2023-04-01T08:37:35;118349.16;;;-140.64;41.18
7930;BME280;4010;42.698;23.124;2023-04-01T08:40:35;118349.16;;;-140.64;40.88
7930;BME280;4010;42.698;23.124;2023-04-01T08:43:09;118349.16;;;-140.64;38.77
7930;BME280;4010;42.698;23.124;2023-04-01T08:45:56;118349.16;;;-140.64;39.84
7930;BME280;4010;42.698;23.124;2023-04-01T08:48:40;118349.16;;;-140.64;38.13
7930;BME280;4010;42.698;23.124;2023-04-01T08:51:45;118349.16;;;-140.64;38.93
7930;BME280;4010;42.698;23.124;2023-04-01T08:57:10;118349.16;;;-140.64;38.06
7930;BME280;4010;42.698;23.124;2023-04-01T08:59:53;118349.16;;;-140.64;39.25
7930;BME280;4010;42.698;23.124;2023-04-01T09:02:56;118349.16;;;-140.64;38.86
7930;BME280;4010;42.698;23.124;2023-04-01T09:05:38;118349.16;;;-140.64;39.10
7930;BME280;4010;42.698;23.124;2023-04-01T09:08:27;118349.16;;;-140.64;38.17
7930;BME280;4010;42.698;23.124;2023-04-01T09:11:10;118349.16;;;-140.64;38.42
7930;BME280;4010;42.698;23.124;2023-04-01T09:17:19;118349.16;;;-140.64;38.54
7930;BME280;4010;42.698;23.124;2023-04-01T09:20:14;118349.16;;;-140.64;37.91
7930;BME280;4010;42.698;23.124;2023-04-01T09:23:00;118349.16;;;-140.64;38.33
7930;BME280;4010;42.698;23.124;2023-04-01T09:25:46;118349.16;;;-140.64;38.27
7930;BME280;4010;42.698;23.124;2023-04-01T09:28:18;118349.16;;;-140.64;38.33
7930;BME280;4010;42.698;23.124;2023-04-01T09:31:04;118349.16;;;-140.64;38.33
7930;BME280;4010;42.698;23.124;2023-04-01T09:34:09;118349.16;;;-140.64;38.46
7930;BME280;4010;42.698;23.124;2023-04-01T09:36:45;118349.16;;;-140.64;38.24
7930;BME280;4010;42.698;23.124;2023-04-01T09:39:28;118349.16;;;-140.64;37.96
7930;BME280;4010;42.698;23.124;2023-04-01T09:42:07;118349.16;;;-140.64;37.97
7930;BME280;4010;42.698;23.124;2023-04-01T09:44:39;118349.16;;;-140.64;37.73
7930;BME280;4010;42.698;23.124;2023-04-01T09:47:21;118349.16;;;-140.64;37.32
7930;BME280;4010;42.698;23.124;2023-04-01T09:50:15;118349.16;;;-140.64;37.57
7930;BME280;4010;42.698;23.124;2023-04-01T09:52:49;118349.16;;;-140.64;37.04
7930;BME280;4010;42.698;23.124;2023-04-01T09:55:44;118349.16;;;-140.64;38.19
7930;BME280;4010;42.698;23.124;2023-04-01T10:01:34;118349.16;;;-140.64;38.58
7930;BME280;4010;42.698;23.124;2023-04-01T10:07:33;118349.16;;;-140.64;38.35
7930;BME280;4010;42.698;23.124;2023-04-01T10:10:25;118349.16;;;-140.64;39.81
7930;BME280;4010;42.698;23.124;2023-04-01T10:13:19;118349.16;;;-140.64;40.11
7930;BME280;4010;42.698;23.124;2023-04-01T10:22:30;118349.16;;;-140.64;40.22
7930;BME280;4010;42.698;23.124;2023-04-01T10:25:30;118349.16;;;-140.64;40.53
7930;BME280;4010;42.698;23.124;2023-04-01T10:28:28;118349.16;;;-140.64;39.84
7930;BME280;4010;42.698;23.124;2023-04-01T10:31:17;118349.16;;;-140.64;39.39
7930;BME280;4010;42.698;23.124;2023-04-01T10:37:14;118349.16;;;-140.64;39.90
7930;BME280;4010;42.698;23.124;2023-04-01T10:40:15;118349.16;;;-140.64;40.02
7930;BME280;4010;42.698;23.124;2023-04-01T10:43:25;118349.16;;;-140.64;39.79
7930;BME280;4010;42.698;23.124;2023-04-01T10:46:35;118349.16;;;-140.64;40.04
7930;BME280;4010;42.698;23.124;2023-04-01T10:55:50;118349.16;;;-140.64;39.12
7930;BME280;4010;42.698;23.124;2023-04-01T10:58:52;118349.16;;;-140.64;38.90
7930;BME280;4010;42.698;23.124;2023-04-01T11:01:56;118349.16;;;-140.64;39.15
7930;BME280;4010;42.698;23.124;2023-04-01T11:08:03;118349.16;;;-140.64;39.55
7930;BME280;4010;42.698;23.124;2023-04-01T11:11:06;118349.16;;;-140.64;39.34
7930;BME280;4010;42.698;23.124;2023-04-01T11:17:17;118349.16;;;-140.64;45.40
7930;BME280;4010;42.698;23.124;2023-04-01T11:23:11;118349.16;;;-140.64;56.57
7930;BME280;4010;42.698;23.124;2023-04-01T11:26:02;118349.16;;;-140.64;65.04
7930;BME280;4010;42.698;23.124;2023-04-01T11:28:51;118349.16;;;-140.64;70.36
7930;BME280;4010;42.698;23.124;2023-04-01T11:31:39;118349.16;;;-140.64;73.54
7930;BME280;4010;42.698;23.124;2023-04-01T11:34:20;118349.16;;;-140.64;78.84
7930;BME280;4010;42.698;23.124;2023-04-01T11:36:56;118349.16;;;-140.64;82.97
7930;BME280;4010;42.698;23.124;2023-04-01T11:39:33;118349.16;;;-140.64;83.37
7930;BME280;4010;42.698;23.124;2023-04-01T11:42:15;118349.16;;;-140.64;85.79
7930;BME280;4010;42.698;23.124;2023-04-01T11:44:53;118349.16;;;-140.64;85.87
7930;BME280;4010;42.698;23.124;2023-04-01T11:47:39;118349.16;;;-140.64;86.28
7930;BME280;4010;42.698;23.124;2023-04-01T11:50:18;118349.16;;;-140.64;87.48
7930;BME280;4010;42.698;23.124;2023-04-01T11:53:15;118349.16;;;-140.64;88.27
7930;BME280;4010;42.698;23.124;2023-04-01T11:55:59;118349.16;;;-140.64;89.71
7930;BME280;4010;42.698;23.124;2023-04-01T11:58:41;118349.16;;;-140.64;90.56
7930;BME280;4010;42.698;23.124;2023-04-01T12:01:23;118349.16;;;-140.64;90.44
7930;BME280;4010;42.698;23.124;2023-04-01T12:04:05;118349.16;;;-140.64;89.42
7930;BME280;4010;42.698;23.124;2023-04-01T12:06:44;118349.16;;;-140.64;89.37
7930;BME280;4010;42.698;23.124;2023-04-01T12:09:21;118349.16;;;-140.64;88.15
7930;BME280;4010;42.698;23.124;2023-04-01T12:11:57;118349.16;;;-140.64;90.06
7930;BME280;4010;42.698;23.124;2023-04-01T12:14:35;118349.16;;;-140.64;90.25
7930;BME280;4010;42.698;23.124;2023-04-01T12:17:13;118349.16;;;-140.64;89.63
7930;BME280;4010;42.698;23.124;2023-04-01T12:19:51;118349.16;;;-140.64;90.96
7930;BME280;4010;42.698;23.124;2023-04-01T12:22:31;118349.16;;;-140.64;90.13
7930;BME280;4010;42.698;23.124;2023-04-01T12:25:12;118349.16;;;-140.64;90.15
7930;BME280;4010;42.698;23.124;2023-04-01T12:27:47;118349.16;;;-140.64;90.84
7930;BME280;4010;42.698;23.124;2023-04-01T12:30:42;118349.16;;;-140.64;91.33
7930;BME280;4010;42.698;23.124;2023-04-01T12:33:34;118349.16;;;-140.64;92.11
7930;BME280;4010;42.698;23.124;2023-04-01T12:36:12;118349.16;;;-140.64;92.43
7930;BME280;4010;42.698;23.124;2023-04-01T12:38:54;118349.16;;;-140.64;92.86
7930;BME280;4010;42.698;23.124;2023-04-01T12:41:31;118349.16;;;-140.64;92.65
7930;BME280;4010;42.698;23.124;2023-04-01T12:44:23;118349.16;;;-140.64;92.65
7930;BME280;4010;42.698;23.124;2023-04-01T12:47:06;118349.16;;;-140.64;92.38
7930;BME280;4010;42.698;23.124;2023-04-01T12:49:55;118349.16;;;-140.64;92.90
7930;BME280;4010;42.698;23.124;2023-04-01T12:52:36;118349.16;;;-140.64;90.83
7930;BME280;4010;42.698;23.124;2023-04-01T12:55:25;118349.16;;;-140.64;89.68
7930;BME280;4010;42.698;23.124;2023-04-01T13:01:19;118349.16;;;-140.64;85.82
7930;BME280;4010;42.698;23.124;2023-04-01T13:10:07;118349.16;;;-140.64;85.29
7930;BME280;4010;42.698;23.124;2023-04-01T13:15:41;118349.16;;;-140.64;84.43
7930;BME280;4010;42.698;23.124;2023-04-01T13:18:22;118349.16;;;-140.64;83.52
7930;BME280;4010;42.698;23.124;2023-04-01T13:20:57;118349.16;;;-140.64;82.66
7930;BME280;4010;42.698;23.124;2023-04-01T13:23:36;118349.16;;;-140.64;79.94
7930;BME280;4010;42.698;23.124;2023-04-01T13:26:13;118349.16;;;-140.64;81.94
7930;BME280;4010;42.698;23.124;2023-04-01T13:28:50;118349.16;;;-140.64;79.39
7930;BME280;4010;42.698;23.124;2023-04-01T13:31:40;118349.16;;;-140.64;79.10
7930;BME280;4010;42.698;23.124;2023-04-01T13:34:26;118349.16;;;-140.64;75.79
7930;BME280;4010;42.698;23.124;2023-04-01T13:37:04;118349.16;;;-140.64;75.48
7930;BME280;4010;42.698;23.124;2023-04-01T13:39:44;118349.16;;;-140.64;73.72
7930;BME280;4010;42.698;23.124;2023-04-01T13:42:18;118349.16;;;-140.64;74.18
7930;BME280;4010;42.698;23.124;2023-04-01T13:44:55;118349.16;;;-140.64;74.76
7930;BME280;4010;42.698;23.124;2023-04-01T13:51:01;118349.16;;;-140.64;73.16
7930;BME280;4010;42.698;23.124;2023-04-01T13:53:53;118349.16;;;-140.64;73.09
7930;BME280;4010;42.698;23.124;2023-04-01T13:56:37;118349.16;;;-140.64;72.89
7930;BME280;4010;42.698;23.124;2023-04-01T13:59:28;118349.16;;;-140.64;73.04
7930;BME280;4010;42.698;23.124;2023-04-01T14:02:21;118349.16;;;-140.64;72.18
7930;BME280;4010;42.698;23.124;2023-04-01T14:07:52;118349.16;;;-140.64;72.00
7930;BME280;4010;42.698;23.124;2023-04-01T14:10:28;118349.16;;;-140.64;71.80
7930;BME280;4010;42.698;23.124;2023-04-01T14:13:06;118349.16;;;-140.64;71.23
7930;BME280;4010;42.698;23.124;2023-04-01T14:15:56;118349.16;;;-140.64;69.68
7930;BME280;4010;42.698;23.124;2023-04-01T14:18:39;118349.16;;;-140.64;70.46
7930;BME280;4010;42.698;23.124;2023-04-01T14:21:17;118349.16;;;-140.64;68.96
7930;BME280;4010;42.698;23.124;2023-04-01T14:23:57;118349.16;;;-140.64;68.68
7930;BME280;4010;42.698;23.124;2023-04-01T14:27:09;118349.16;;;-140.64;67.75
7930;BME280;4010;42.698;23.124;2023-04-01T14:29:51;118349.16;;;-140.64;67.94